createdAt,value
2019-02-17T05:00:39.191Z,0.00
2019-02-17T05:01:31.055Z,0.00
2019-02-17T05:02:30.222Z,0.00
2019-02-17T05:03:30.453Z,0.00
2019-02-17T05:04:30.643Z,0.00
2019-02-17T05:05:30.804Z,0.00
2019-02-17T05:06:30.984Z,0.00
2019-02-17T05:07:31.152Z,0.00
2019-02-17T05:08:31.333Z,0.00
2019-02-17T05:09:31.505Z,0.00
2019-02-17T05:10:32.808Z,0.00
2019-02-17T05:11:31.815Z,0.00
2019-02-17T05:12:31.975Z,0.00
2019-02-17T05:13:32.146Z,0.00
2019-02-17T05:14:32.318Z,0.00
2019-02-17T05:15:32.470Z,0.00
2019-02-17T05:16:32.645Z,0.00
2019-02-17T05:17:32.787Z,0.00
2019-02-17T05:18:32.950Z,0.00
2019-02-17T05:19:33.145Z,0.00
2019-02-17T05:20:33.311Z,0.00
2019-02-17T05:21:33.484Z,0.00
2019-02-17T05:22:33.693Z,0.00
2019-02-17T05:23:33.857Z,0.00
2019-02-17T05:24:34.043Z,0.00
2019-02-17T05:25:34.234Z,0.00
2019-02-17T05:26:34.396Z,0.00
2019-02-17T05:27:34.610Z,0.00
2019-02-17T05:28:34.809Z,0.00
2019-02-17T05:29:35.038Z,0.00
2019-02-17T05:30:35.234Z,0.00
2019-02-17T05:31:35.424Z,0.00
2019-02-17T05:32:35.600Z,0.00
2019-02-17T05:33:35.785Z,0.00
2019-02-17T05:34:36.003Z,0.00
2019-02-17T05:35:36.179Z,0.00
2019-02-17T05:36:36.384Z,0.00
2019-02-17T05:37:36.608Z,0.00
2019-02-17T05:38:36.823Z,0.00
2019-02-17T05:39:37.019Z,0.00
2019-02-17T05:40:38.220Z,0.00
2019-02-17T05:41:37.375Z,0.00
2019-02-17T05:42:37.547Z,0.00
2019-02-17T05:43:37.768Z,0.00
2019-02-17T05:44:37.978Z,0.00
2019-02-17T05:45:38.180Z,0.00
2019-02-17T05:46:38.390Z,0.00
2019-02-17T05:47:38.571Z,0.00
2019-02-17T05:48:38.744Z,0.00
2019-02-17T05:49:38.969Z,0.00
2019-02-17T05:50:39.124Z,0.00
2019-02-17T05:51:39.304Z,0.00
2019-02-17T05:52:39.471Z,0.00
2019-02-17T05:53:39.653Z,0.00
2019-02-17T05:54:39.849Z,0.00
2019-02-17T05:55:40.030Z,0.00
2019-02-17T05:56:40.201Z,0.00
2019-02-17T05:57:40.364Z,0.00
2019-02-17T05:58:40.543Z,0.00
2019-02-17T05:59:40.756Z,0.00
2019-02-17T06:00:40.926Z,4.00
2019-02-17T06:01:41.079Z,0.00
2019-02-17T06:02:41.284Z,0.00
2019-02-17T06:03:41.453Z,4.00
2019-02-17T06:04:41.626Z,0.00
2019-02-17T06:05:41.827Z,4.00
2019-02-17T06:06:41.982Z,4.00
2019-02-17T06:07:42.160Z,4.00
2019-02-17T06:08:42.349Z,4.00
2019-02-17T06:09:42.533Z,8.00
2019-02-17T06:10:42.725Z,8.00
2019-02-17T06:11:42.895Z,12.00
2019-02-17T06:12:43.057Z,12.00
2019-02-17T06:13:43.215Z,16.00
2019-02-17T06:14:43.451Z,16.00
2019-02-17T06:15:43.614Z,20.00
2019-02-17T06:16:43.773Z,20.00
2019-02-17T06:17:43.955Z,24.00
2019-02-17T06:18:44.115Z,32.00
2019-02-17T06:19:44.278Z,32.00
2019-02-17T06:20:44.550Z,40.00
2019-02-17T06:21:44.597Z,44.00
2019-02-17T06:22:44.772Z,52.00
2019-02-17T06:23:44.941Z,56.00
2019-02-17T06:24:45.105Z,64.00
2019-02-17T06:25:45.285Z,72.00
2019-02-17T06:26:45.460Z,76.00
2019-02-17T06:27:45.635Z,84.00
2019-02-17T06:28:45.941Z,92.00
2019-02-17T06:29:45.994Z,100.00
2019-02-17T06:30:46.171Z,108.00
2019-02-17T06:31:46.346Z,116.00
2019-02-17T06:32:46.532Z,124.00
2019-02-17T06:33:46.741Z,136.00
2019-02-17T06:34:46.958Z,124.00
2019-02-17T06:35:47.152Z,156.00
2019-02-17T06:36:48.290Z,280.00
2019-02-17T06:37:47.592Z,300.00
2019-02-17T06:38:47.732Z,324.00
2019-02-17T06:39:47.896Z,348.00
2019-02-17T06:40:48.008Z,372.00
2019-02-17T06:41:48.119Z,396.00
2019-02-17T06:42:48.324Z,420.00
2019-02-17T06:43:48.566Z,448.00
2019-02-17T06:44:48.751Z,476.00
2019-02-17T06:45:49.023Z,508.00
2019-02-17T06:46:49.222Z,540.00
2019-02-17T06:47:49.280Z,568.00
2019-02-17T06:48:49.489Z,600.00
2019-02-17T06:49:49.699Z,632.00
2019-02-17T06:50:49.911Z,660.00
2019-02-17T06:51:50.083Z,688.00
2019-02-17T06:52:50.261Z,716.00
2019-02-17T06:53:50.439Z,744.00
2019-02-17T06:54:50.626Z,772.00
2019-02-17T06:55:50.842Z,796.00
2019-02-17T06:56:51.022Z,820.00
2019-02-17T06:57:51.229Z,776.00
2019-02-17T06:58:51.401Z,788.00
2019-02-17T06:59:52.650Z,888.00
2019-02-17T07:00:51.777Z,840.00
2019-02-17T07:01:55.849Z,920.00
2019-02-17T07:02:55.568Z,944.00
2019-02-17T07:03:53.315Z,892.00
2019-02-17T07:05:01.920Z,1016.00
2019-02-17T07:05:53.707Z,1060.00
2019-02-17T07:06:52.911Z,1100.00
2019-02-17T07:07:53.144Z,1120.00
2019-02-17T07:08:53.320Z,1136.00
2019-02-17T07:09:53.599Z,1152.00
2019-02-17T07:10:53.700Z,1164.00
2019-02-17T07:11:56.894Z,1184.00
2019-02-17T07:12:54.059Z,1192.00
2019-02-17T07:13:54.278Z,1220.00
2019-02-17T07:14:54.532Z,1256.00
2019-02-17T07:15:54.713Z,1284.00
2019-02-17T07:16:54.853Z,1296.00
2019-02-17T07:17:54.978Z,1304.00
2019-02-17T07:18:55.178Z,1328.00
2019-02-17T07:19:55.940Z,1372.00
2019-02-17T07:21:30.368Z,1428.00
2019-02-17T07:21:55.789Z,1488.00
2019-02-17T07:22:56.013Z,1540.00
2019-02-17T07:23:56.218Z,1600.00
2019-02-17T07:24:56.408Z,1656.00
2019-02-17T07:25:56.607Z,1692.00
2019-02-17T07:26:56.928Z,1720.00
2019-02-17T07:27:57.020Z,1752.00
2019-02-17T07:28:57.326Z,1772.00
2019-02-17T07:29:57.464Z,1792.00
2019-02-17T07:30:57.555Z,1820.00
2019-02-17T07:31:57.805Z,1868.00
2019-02-17T07:32:57.945Z,1916.00
2019-02-17T07:33:58.258Z,1956.00
2019-02-17T07:34:59.790Z,2012.00
2019-02-17T07:35:58.613Z,2080.00
2019-02-17T07:36:58.607Z,2108.00
2019-02-17T07:37:58.732Z,2120.00
2019-02-17T07:38:58.869Z,2160.00
2019-02-17T07:39:59.120Z,2200.00
2019-02-17T07:40:59.234Z,2212.00
2019-02-17T07:41:59.511Z,2240.00
2019-02-17T07:42:59.788Z,2296.00
2019-02-17T07:43:59.810Z,2376.00
2019-02-17T07:45:00.077Z,2456.00
2019-02-17T07:46:00.112Z,2608.00
2019-02-17T07:47:00.270Z,2724.00
2019-02-17T07:48:00.439Z,2800.00
2019-02-17T07:49:00.597Z,2888.00
2019-02-17T07:50:00.786Z,2936.00
2019-02-17T07:51:00.876Z,2936.00
2019-02-17T07:52:01.468Z,2924.00
2019-02-17T07:53:01.265Z,3012.00
2019-02-17T07:54:01.902Z,3140.00
2019-02-17T07:55:01.639Z,3148.00
2019-02-17T07:56:01.921Z,3176.00
2019-02-17T07:57:01.989Z,3296.00
2019-02-17T07:58:02.184Z,3400.00
2019-02-17T07:59:03.057Z,3496.00
2019-02-17T08:00:02.639Z,3580.00
2019-02-17T08:01:03.237Z,3652.00
2019-02-17T08:02:02.897Z,3672.00
2019-02-17T08:03:03.122Z,3644.00
2019-02-17T08:04:03.315Z,3672.00
2019-02-17T08:05:03.548Z,3660.00
2019-02-17T08:06:03.755Z,3712.00
2019-02-17T08:07:03.999Z,3764.00
2019-02-17T08:08:04.203Z,3816.00
2019-02-17T08:09:04.408Z,3848.00
2019-02-17T08:10:04.654Z,3900.00
2019-02-17T08:11:05.577Z,3944.00
2019-02-17T08:12:05.040Z,3968.00
2019-02-17T08:13:05.251Z,3984.00
2019-02-17T08:14:05.434Z,3984.00
2019-02-17T08:15:07.242Z,3956.00
2019-02-17T08:16:05.876Z,3880.00
2019-02-17T08:17:05.933Z,3844.00
2019-02-17T08:18:06.152Z,3888.00
2019-02-17T08:19:06.343Z,3988.00
2019-02-17T08:20:06.543Z,4064.00
2019-02-17T08:21:06.752Z,4168.00
2019-02-17T08:22:06.957Z,4232.00
2019-02-17T08:23:07.139Z,4344.00
2019-02-17T08:24:07.316Z,4432.00
2019-02-17T08:25:07.478Z,4508.00
2019-02-17T08:26:07.670Z,4532.00
2019-02-17T08:27:07.864Z,4532.00
2019-02-17T08:28:08.049Z,4548.00
2019-02-17T08:29:08.286Z,4516.00
2019-02-17T08:30:08.482Z,4612.00
2019-02-17T08:31:08.704Z,4736.00
2019-02-17T08:32:08.884Z,4764.00
2019-02-17T08:33:09.095Z,4792.00
2019-02-17T08:34:09.274Z,4836.00
2019-02-17T08:35:09.454Z,4920.00
2019-02-17T08:36:09.635Z,5012.00
2019-02-17T08:37:11.167Z,5032.00
2019-02-17T08:38:09.953Z,5040.00
2019-02-17T08:39:10.143Z,5160.00
2019-02-17T08:40:10.347Z,5156.00
2019-02-17T08:41:10.585Z,5292.00
2019-02-17T08:42:10.803Z,5412.00
2019-02-17T08:43:10.986Z,5672.00
2019-02-17T08:44:11.238Z,5916.00
2019-02-17T08:45:11.344Z,5892.00
2019-02-17T08:46:11.551Z,5856.00
2019-02-17T08:47:11.803Z,5864.00
2019-02-17T08:48:11.899Z,5988.00
2019-02-17T08:49:12.100Z,6104.00
2019-02-17T08:50:12.304Z,6104.00
2019-02-17T08:51:12.510Z,6224.00
2019-02-17T08:52:12.704Z,6268.00
2019-02-17T08:53:12.908Z,6216.00
2019-02-17T08:54:13.094Z,6176.00
2019-02-17T08:55:13.293Z,6136.00
2019-02-17T08:56:13.492Z,6292.00
2019-02-17T08:57:13.688Z,6268.00
2019-02-17T08:58:13.839Z,6248.00
2019-02-17T08:59:14.048Z,6104.00
2019-02-17T09:15:49.473Z,7964.00
2019-02-17T09:16:49.569Z,8116.00
2019-02-17T09:17:49.722Z,8204.00
2019-02-17T09:18:49.627Z,8332.00
2019-02-17T09:19:49.762Z,8324.00
2019-02-17T09:20:49.922Z,8508.00
2019-02-17T09:21:50.047Z,8456.00
2019-02-17T09:22:50.200Z,8460.00
2019-02-17T09:23:50.340Z,8688.00
2019-02-17T09:24:50.537Z,8836.00
2019-02-17T09:25:50.723Z,8932.00
2019-02-17T09:26:50.881Z,8944.00
2019-02-17T09:27:51.008Z,8684.00
2019-02-17T10:10:21.216Z,12532.00
2019-02-17T10:11:21.303Z,13296.00
2019-02-17T10:12:21.459Z,12332.00
2019-02-17T10:13:21.579Z,12008.00
2019-02-17T10:14:21.769Z,12108.00
2019-02-17T10:15:21.926Z,11512.00
2019-02-17T10:16:22.896Z,11184.00
2019-02-17T10:17:22.364Z,11460.00
2019-02-17T10:18:22.568Z,11304.00
2019-02-17T10:19:22.762Z,11404.00
2019-02-17T10:20:24.494Z,11696.00
2019-02-17T10:21:23.109Z,12068.00
2019-02-17T10:22:23.830Z,12572.00
2019-02-17T10:23:24.249Z,12792.00
2019-02-17T10:24:24.271Z,12516.00
2019-02-17T10:25:24.146Z,12344.00
2019-02-17T10:26:24.127Z,13184.00
2019-02-17T10:27:24.527Z,13316.00
2019-02-17T10:28:25.108Z,13484.00
2019-02-17T10:29:24.838Z,13420.00
2019-02-17T10:30:24.987Z,13064.00
2019-02-17T10:31:25.173Z,13348.00
2019-02-17T10:32:25.286Z,13548.00
2019-02-17T10:33:25.968Z,14252.00
2019-02-17T10:34:25.962Z,14352.00
2019-02-17T10:35:26.085Z,13180.00
2019-02-17T10:36:26.251Z,12460.00
2019-02-17T10:37:26.259Z,11944.00
2019-02-17T10:38:27.610Z,11680.00
2019-02-17T10:39:26.709Z,11780.00
2019-02-17T10:40:27.129Z,11960.00
2019-02-17T10:41:26.956Z,12244.00
2019-02-17T10:42:27.328Z,12812.00
2019-02-17T10:43:27.292Z,17440.00
2019-02-17T10:44:27.426Z,27712.00
2019-02-17T10:45:28.207Z,26048.00
2019-02-17T10:46:27.952Z,16384.00
2019-02-17T10:47:28.233Z,14520.00
2019-02-17T10:48:28.726Z,14940.00
2019-02-17T10:49:28.542Z,14984.00
2019-02-17T10:50:28.827Z,14660.00
2019-02-17T10:51:28.968Z,13856.00
2019-02-17T10:52:29.432Z,13108.00
2019-02-17T10:53:29.835Z,14400.00
2019-02-17T10:54:29.814Z,14472.00
2019-02-17T10:55:29.817Z,13384.00
2019-02-17T10:56:29.922Z,14664.00
2019-02-17T10:57:30.163Z,14984.00
2019-02-17T10:58:30.473Z,14336.00
2019-02-17T10:59:31.843Z,14140.00
2019-02-17T11:30:32.281Z,13308.00
2019-02-17T11:31:32.674Z,12196.00
2019-02-17T11:32:32.610Z,11608.00
2019-02-17T11:33:32.827Z,10876.00
2019-02-17T11:34:33.044Z,10436.00
2019-02-17T11:35:33.231Z,10220.00
2019-02-17T11:36:33.447Z,10464.00
2019-02-17T11:37:33.668Z,10788.00
2019-02-17T11:38:33.849Z,10608.00
2019-02-17T11:39:34.041Z,10248.00
2019-02-17T11:40:34.277Z,9912.00
2019-02-17T11:41:34.494Z,10392.00
2019-02-17T11:42:34.680Z,10432.00
2019-02-17T11:43:34.914Z,10372.00
2019-02-17T11:44:35.107Z,10612.00
2019-02-17T11:45:35.319Z,11904.00
2019-02-17T11:46:35.507Z,13900.00
2019-02-17T11:47:35.699Z,14552.00
2019-02-17T11:48:35.899Z,14472.00
2019-02-17T11:49:36.129Z,14936.00
2019-02-17T11:50:36.387Z,16480.00
2019-02-17T11:51:36.515Z,16240.00
2019-02-17T11:52:37.721Z,16832.00
2019-02-17T11:53:37.888Z,17344.00
2019-02-17T11:54:38.171Z,15388.00
2019-02-17T11:55:38.236Z,16260.00
2019-02-17T11:56:38.381Z,15920.00
2019-02-17T11:57:38.567Z,16608.00
2019-02-17T11:58:38.735Z,16960.00
2019-02-17T11:59:38.855Z,16180.00
2019-02-17T12:00:39.001Z,16344.00
2019-02-17T12:01:39.193Z,17408.00
2019-02-17T12:02:39.399Z,17952.00
2019-02-17T12:03:39.569Z,17824.00
2019-02-17T12:04:39.852Z,17728.00
2019-02-17T12:05:40.184Z,17696.00
2019-02-17T12:06:40.096Z,17568.00
2019-02-17T12:07:40.277Z,17824.00
2019-02-17T12:08:40.540Z,15940.00
2019-02-17T12:09:40.699Z,14928.00
2019-02-17T12:10:40.785Z,15436.00
2019-02-17T12:11:40.966Z,14768.00
2019-02-17T12:12:41.174Z,14236.00
2019-02-17T12:13:41.313Z,13668.00
2019-02-17T12:14:41.547Z,12644.00
2019-02-17T12:15:41.697Z,12596.00
2019-02-17T12:16:41.862Z,11956.00
2019-02-17T12:17:42.017Z,11008.00
2019-02-17T12:18:42.216Z,11480.00
2019-02-17T12:19:42.372Z,11432.00
2019-02-17T12:20:42.485Z,11312.00
2019-02-17T12:21:42.645Z,11416.00
2019-02-17T12:22:42.793Z,11508.00
2019-02-17T12:23:42.925Z,11568.00
2019-02-17T12:24:43.061Z,11364.00
2019-02-17T12:25:43.214Z,11228.00
2019-02-17T12:26:43.365Z,11176.00
2019-02-17T12:27:43.542Z,10844.00
2019-02-17T12:28:43.690Z,10564.00
2019-02-17T12:29:45.116Z,10724.00
2019-02-17T12:30:44.188Z,11048.00
2019-02-17T12:31:44.393Z,10828.00
2019-02-17T12:32:44.529Z,10596.00
2019-02-17T12:33:44.702Z,10120.00
2019-02-17T12:34:44.831Z,10040.00
2019-02-17T12:35:45.005Z,10232.00
2019-02-17T12:36:45.135Z,10072.00
2019-02-17T12:37:47.293Z,10072.00
2019-02-17T12:38:45.511Z,10120.00
2019-02-17T12:39:45.759Z,10020.00
2019-02-17T12:40:45.861Z,10336.00
2019-02-17T12:41:46.076Z,10316.00
2019-02-17T12:42:46.234Z,10764.00
2019-02-17T12:43:46.358Z,12456.00
2019-02-17T12:44:46.486Z,12648.00
2019-02-17T12:45:46.686Z,11112.00
2019-02-17T13:06:22.976Z,20448.00
2019-02-17T13:07:24.304Z,16736.00
2019-02-17T13:08:24.470Z,41792.00
2019-02-17T13:09:24.871Z,25856.00
2019-02-17T13:10:25.489Z,9044.00
2019-02-17T13:11:25.066Z,8596.00
2019-02-17T13:12:25.496Z,29248.00
2019-02-17T13:13:25.923Z,27488.00
2019-02-17T13:14:26.499Z,13356.00
2019-02-17T13:15:26.459Z,25312.00
2019-02-17T13:16:26.845Z,43104.00
2019-02-17T13:17:27.178Z,7064.00
2019-02-17T13:18:28.126Z,37920.00
2019-02-17T13:19:26.728Z,35360.00
2019-02-17T13:20:26.891Z,37312.00
2019-02-17T13:21:27.938Z,36064.00
2019-02-17T13:22:28.301Z,31104.00
2019-02-17T13:23:27.441Z,26624.00
2019-02-17T13:24:27.741Z,20544.00
2019-02-17T13:25:30.212Z,21632.00
2019-02-17T13:26:27.808Z,19520.00
2019-02-17T13:27:27.994Z,17856.00
2019-02-17T13:28:28.277Z,19584.00
2019-02-17T13:29:28.276Z,19712.00
2019-02-17T13:30:28.368Z,19680.00
2019-02-17T13:31:29.360Z,18880.00
2019-02-17T13:32:29.832Z,17888.00
2019-02-17T13:33:38.750Z,16576.00
2019-02-17T13:34:31.095Z,15088.00
2019-02-17T13:35:29.601Z,13948.00
2019-02-17T13:36:30.323Z,13440.00
2019-02-17T13:37:30.319Z,12452.00
2019-02-17T13:38:31.327Z,12296.00
2019-02-17T13:39:30.792Z,12052.00
2019-02-17T13:40:31.664Z,11828.00
2019-02-17T13:41:30.950Z,11720.00
2019-02-17T13:42:31.317Z,11576.00
2019-02-17T13:43:32.159Z,11132.00
2019-02-17T13:44:31.678Z,10664.00
2019-02-17T13:45:32.115Z,10544.00
2019-02-17T13:46:31.917Z,10348.00
2019-02-17T13:47:32.404Z,10176.00
2019-02-17T13:48:32.701Z,10076.00
2019-02-17T13:49:32.650Z,9724.00
2019-02-17T13:50:32.978Z,10004.00
2019-02-17T13:51:33.285Z,10096.00
2019-02-17T13:52:33.978Z,10016.00
2019-02-17T13:53:34.476Z,10020.00
2019-02-17T13:54:33.537Z,9952.00
2019-02-17T13:55:34.605Z,9752.00
2019-02-17T13:56:34.762Z,9596.00
2019-02-17T13:57:33.817Z,9408.00
2019-02-17T13:58:33.907Z,9240.00
2019-02-17T13:59:34.279Z,9380.00
2019-02-17T14:00:34.581Z,9232.00
2019-02-17T14:01:34.677Z,9024.00
2019-02-17T14:02:34.987Z,8960.00
2019-02-17T14:03:35.151Z,8772.00
